Time;durP1;ratioP1;P1;durP2;ratioP2;P2;SDS_P1;SDS_P2;PMS_P1;PMS_P2;Temp;Humidity;BMP_temperature;BMP_pressure;BME280_temperature;BME280_humidity;BME280_pressure;Samples;Min_cycle;Max_cycle;Signal;HPM_P1;HPM_P2
2023/12/25 00:01:19;;;;;;;20.48;9.15;;;;;;;10.30;100.00;100487.00;5083578;28;20090;-67
2023/12/25 00:03:45;;;;;;;20.52;9.30;;;;;;;10.28;100.00;100488.75;5084137;28;20028;-67
2023/12/25 00:06:10;;;;;;;19.63;8.98;;;;;;;10.29;100.00;100486.13;5064229;28;20459;-67
2023/12/25 00:08:35;;;;;;;19.55;8.48;;;;;;;10.32;100.00;100484.34;5085617;28;20543;-77
2023/12/25 00:11:01;;;;;;;19.83;8.73;;;;;;;10.29;100.00;100487.88;5082542;28;20037;-77
2023/12/25 00:13:26;;;;;;;19.02;7.88;;;;;;;10.25;100.00;100484.38;5084393;28;20045;-80
2023/12/25 00:15:51;;;;;;;19.75;7.78;;;;;;;10.25;100.00;100480.81;5083136;28;20043;-85
2023/12/25 00:18:17;;;;;;;20.13;7.65;;;;;;;10.26;100.00;100472.91;5082790;28;20475;-75
2023/12/25 00:20:42;;;;;;;19.60;8.40;;;;;;;10.26;100.00;100454.41;5066377;28;20069;-83
2023/12/25 00:23:08;;;;;;;18.90;8.00;;;;;;;10.28;100.00;100468.50;5063578;28;20032;-84
2023/12/25 00:25:33;;;;;;;18.92;7.63;;;;;;;10.28;100.00;100459.69;5084903;28;20090;-84
2023/12/25 00:27:59;;;;;;;17.70;7.25;;;;;;;10.29;100.00;100456.16;5082101;28;20039;-83
2023/12/25 00:30:24;;;;;;;18.33;7.93;;;;;;;10.26;100.00;100475.53;5083606;28;20036;-82
2023/12/25 00:32:49;;;;;;;19.48;7.60;;;;;;;10.26;100.00;100453.53;5082971;28;20039;-82
2023/12/25 00:35:15;;;;;;;19.27;7.93;;;;;;;10.27;100.00;100455.31;5064546;28;20025;-82
2023/12/25 00:37:40;;;;;;;19.33;7.63;;;;;;;10.25;100.00;100449.13;5084215;28;20032;-83
2023/12/25 00:40:06;;;;;;;19.17;7.80;;;;;;;10.29;100.00;100462.34;5081327;28;20032;-82
2023/12/25 00:42:32;;;;;;;18.92;7.60;;;;;;;10.27;100.00;100461.47;5084749;28;20111;-81
2023/12/25 00:44:57;;;;;;;19.40;7.97;;;;;;;10.28;100.00;100467.59;5081349;28;20458;-69
2023/12/25 00:47:22;;;;;;;20.30;8.38;;;;;;;10.29;100.00;100453.53;5083958;28;20595;-74
2023/12/25 00:49:48;;;;;;;19.85;8.40;;;;;;;10.28;100.00;100468.50;5082999;28;20035;-67
2023/12/25 00:52:17;;;;;;;19.85;8.15;;;;;;;10.28;100.00;100483.47;5081606;28;20024;-68
2023/12/25 00:54:44;;;;;;;20.30;8.52;;;;;;;10.28;100.00;100488.75;5083861;28;20032;-67
2023/12/25 00:57:09;;;;;;;20.10;8.23;;;;;;;10.28;100.00;100481.72;5081001;28;20448;-70
2023/12/25 00:59:35;;;;;;;18.95;8.15;;;;;;;10.30;100.00;100482.59;5084428;28;20066;-70
2023/12/25 01:02:00;;;;;;;20.35;8.38;;;;;;;10.26;100.00;100496.66;5081631;28;20030;-70
2023/12/25 01:04:25;;;;;;;19.63;8.18;;;;;;;10.30;100.00;100490.50;5083502;28;20059;-69
2023/12/25 01:06:51;;;;;;;20.70;8.48;;;;;;;10.30;100.00;100487.00;5082488;28;20036;-70
2023/12/25 01:09:16;;;;;;;19.80;8.48;;;;;;;10.32;100.00;100479.94;5064192;28;20032;-68
2023/12/25 01:11:42;;;;;;;20.67;8.88;;;;;;;10.32;100.00;100497.56;5083714;28;20064;-69
2023/12/25 01:14:09;;;;;;;20.52;8.38;;;;;;;10.30;100.00;100502.84;5080557;28;20064;-68
2023/12/25 01:16:34;;;;;;;19.55;8.20;;;;;;;10.31;100.00;100494.06;5080847;28;20492;-70
2023/12/25 01:18:59;;;;;;;19.65;8.50;;;;;;;10.28;100.00;100487.00;5083672;28;20024;-71
2023/12/25 01:21:25;;;;;;;20.98;9.13;;;;;;;10.29;100.00;100488.78;5081683;28;20039;-71
2023/12/25 01:23:50;;;;;;;20.20;9.15;;;;;;;10.32;100.00;100474.66;5064618;28;20090;-72
2023/12/25 01:26:15;;;;;;;20.17;8.30;;;;;;;10.33;100.00;100494.94;5083111;28;20106;-71
2023/12/25 01:28:41;;;;;;;20.10;9.23;;;;;;;10.33;100.00;100488.78;5081424;28;20060;-71
2023/12/25 01:31:06;;;;;;;20.48;9.40;;;;;;;10.33;100.00;100494.94;5084066;28;20490;-71
2023/12/25 01:33:32;;;;;;;20.23;9.50;;;;;;;10.29;100.00;100496.69;5080944;28;20426;-69
2023/12/25 01:35:57;;;;;;;20.70;9.20;;;;;;;10.31;100.00;100507.28;5083462;28;20120;-71
2023/12/25 01:38:22;;;;;;;19.90;9.45;;;;;;;10.32;100.00;100495.78;5064011;28;20024;-70
2023/12/25 01:40:48;;;;;;;21.40;9.88;;;;;;;10.31;100.00;100504.63;5082212;28;20039;-80
2023/12/25 01:43:13;;;;;;;21.38;10.50;;;;;;;10.32;100.00;100505.50;5084121;28;20036;-78
2023/12/25 01:45:38;;;;;;;22.13;11.07;;;;;;;10.35;100.00;100495.81;5080939;28;20031;-75
2023/12/25 01:48:05;;;;;;;21.42;10.95;;;;;;;10.35;100.00;100503.75;5080745;28;20399;-82
2023/12/25 01:50:31;;;;;;;22.63;11.50;;;;;;;10.32;100.00;100511.66;5084297;28;20036;-80
2023/12/25 01:52:57;;;;;;;20.90;11.18;;;;;;;10.35;100.00;100495.81;5081809;28;20031;-80
2023/12/25 01:55:22;;;;;;;22.38;11.15;;;;;;;10.35;100.00;100511.69;5083660;28;20028;-80
2023/12/25 01:57:47;;;;;;;23.00;12.43;;;;;;;10.35;100.00;100510.81;5086838;28;20028;-77
2023/12/25 02:00:13;;;;;;;23.73;12.73;;;;;;;10.33;100.00;100510.78;5085312;28;20041;-74
2023/12/25 02:02:42;;;;;;;23.88;12.65;;;;;;;10.33;100.00;100509.91;5070134;28;20485;-73
2023/12/25 02:05:08;;;;;;;23.33;12.75;;;;;;;10.34;100.00;100515.22;5084684;28;20025;-75
2023/12/25 02:07:37;;;;;;;22.85;12.23;;;;;;;10.33;100.00;100508.13;5088127;28;20097;-77
2023/12/25 02:10:02;;;;;;;24.30;13.25;;;;;;;10.30;100.00;100508.13;5084758;28;20028;-68
2023/12/25 02:12:28;;;;;;;23.40;12.23;;;;;;;10.29;100.00;100512.56;5069103;28;20438;-72
2023/12/25 02:14:53;;;;;;;23.55;12.77;;;;;;;10.34;100.00;100519.59;5085831;28;20051;-69
2023/12/25 02:17:19;;;;;;;24.33;12.68;;;;;;;10.32;100.00;100524.00;5085570;28;20076;-78
2023/12/25 02:19:45;;;;;;;23.52;13.93;;;;;;;10.34;100.00;100517.88;5086904;28;20027;-83
2023/12/25 02:22:12;;;;;;;24.88;14.25;;;;;;;10.36;100.00;100524.00;5084445;28;20029;-83
2023/12/25 02:24:41;;;;;;;24.77;13.35;;;;;;;10.38;100.00;100543.41;5069994;28;20039;-84
2023/12/25 02:27:06;;;;;;;24.17;15.15;;;;;;;10.42;100.00;100523.13;5084501;28;20021;-83
2023/12/25 02:29:34;;;;;;;23.90;14.63;;;;;;;10.39;100.00;100515.22;5087458;28;20514;-82
2023/12/25 02:31:59;;;;;;;23.00;13.00;;;;;;;10.41;100.00;100530.19;5084848;28;20032;-74
2023/12/25 02:34:25;;;;;;;22.17;12.68;;;;;;;10.40;100.00;100539.00;5086176;28;20032;-83
2023/12/25 02:36:50;;;;;;;22.10;12.13;;;;;;;10.40;100.00;100533.72;5085317;28;20036;-83
2023/12/25 02:39:17;;;;;;;21.35;11.35;;;;;;;10.40;100.00;100524.91;5084709;28;20041;-82
2023/12/25 02:41:42;;;;;;;21.92;11.90;;;;;;;10.45;100.00;100521.38;5086480;28;20471;-81
2023/12/25 02:44:08;;;;;;;22.23;11.32;;;;;;;10.49;100.00;100545.19;5083394;28;20043;-83
2023/12/25 02:46:33;;;;;;;21.70;11.93;;;;;;;10.45;100.00;100525.78;5086832;28;20035;-82
2023/12/25 02:48:58;;;;;;;22.45;11.80;;;;;;;10.42;100.00;100529.28;5084033;28;20030;-77
2023/12/25 02:51:24;;;;;;;22.38;12.38;;;;;;;10.45;100.00;100534.56;5085452;28;20123;-77
2023/12/25 02:53:49;;;;;;;22.13;12.02;;;;;;;10.43;100.00;100539.00;5085356;28;20029;-71
2023/12/25 02:56:14;;;;;;;22.15;11.20;;;;;;;10.46;100.00;100546.03;5065611;28;20043;-69
2023/12/25 02:58:40;;;;;;;21.83;12.18;;;;;;;10.45;100.00;100545.16;5068878;28;20046;-85
2023/12/25 03:01:05;;;;;;;22.50;11.25;;;;;;;10.51;100.00;100560.13;5083220;28;20028;-84
2023/12/25 03:03:30;;;;;;;22.67;11.32;;;;;;;10.52;100.00;100546.03;5067998;28;20454;-84
2023/12/25 03:05:56;;;;;;;22.05;11.88;;;;;;;10.57;100.00;100543.38;5084120;28;20371;-82
2023/12/25 03:08:21;;;;;;;21.35;10.93;;;;;;;10.55;100.00;100558.38;5084001;28;20466;-71
2023/12/25 03:10:46;;;;;;;21.17;10.75;;;;;;;10.58;100.00;100547.81;5085332;28;20027;-72
2023/12/25 03:13:12;;;;;;;20.90;9.98;;;;;;;10.55;100.00;100551.31;5083237;28;20048;-70
2023/12/25 03:15:37;;;;;;;20.58;10.10;;;;;;;10.56;100.00;100536.38;5086393;28;20101;-69
2023/12/25 03:18:03;;;;;;;20.63;9.90;;;;;;;10.56;100.00;100539.00;5083161;28;20224;-70
2023/12/25 03:20:28;;;;;;;21.73;9.55;;;;;;;10.56;100.00;100531.06;5085375;28;20037;-72
2023/12/25 03:22:53;;;;;;;20.15;9.98;;;;;;;10.59;100.00;100525.78;5066192;28;20035;-71
2023/12/25 03:25:19;;;;;;;20.65;10.07;;;;;;;10.59;100.00;100525.78;5083785;28;20039;-71
2023/12/25 03:27:44;;;;;;;20.00;9.23;;;;;;;10.63;100.00;100531.06;5085483;28;20089;-71
2023/12/25 03:30:10;;;;;;;19.52;9.38;;;;;;;10.61;100.00;100537.22;5082534;28;20042;-74
2023/12/25 03:32:35;;;;;;;19.80;9.30;;;;;;;10.60;100.00;100546.94;5085874;28;20036;-71
2023/12/25 03:35:01;;;;;;;20.20;10.00;;;;;;;10.64;100.00;100551.34;5083021;28;20024;-71
2023/12/25 03:37:27;;;;;;;20.95;9.75;;;;;;;10.65;100.00;100560.13;5066675;28;20040;-71
2023/12/25 03:39:52;;;;;;;19.80;10.00;;;;;;;10.64;100.00;100556.63;5083987;28;20081;-71
2023/12/25 03:42:18;;;;;;;20.17;9.55;;;;;;;10.68;100.00;100546.03;5083427;28;20021;-71
2023/12/25 03:44:43;;;;;;;19.92;8.82;;;;;;;10.65;100.00;100560.13;5085110;28;20035;-71
2023/12/25 03:47:10;;;;;;;19.17;9.05;;;;;;;10.61;100.00;100556.59;5082100;28;20384;-70
2023/12/25 03:49:36;;;;;;;22.20;9.82;;;;;;;10.52;100.00;100563.66;5082734;28;20033;-77
2023/12/25 03:52:01;;;;;;;20.35;9.40;;;;;;;10.50;100.00;100562.78;5067518;28;20360;-82
2023/12/25 03:54:27;;;;;;;20.88;9.82;;;;;;;10.43;100.00;100564.53;5083913;28;20020;-81
2023/12/25 03:56:52;;;;;;;20.92;9.63;;;;;;;10.41;100.00;100561.00;5084290;28;20043;-80
2023/12/25 03:59:17;;;;;;;20.67;9.00;;;;;;;10.41;100.00;100575.13;5084900;28;20161;-81
2023/12/25 04:01:43;;;;;;;20.10;8.82;;;;;;;10.43;100.00;100567.19;5082823;28;20115;-82
2023/12/25 04:04:08;;;;;;;20.63;9.07;;;;;;;10.42;100.00;100576.00;5067666;28;20064;-81
2023/12/25 04:06:33;;;;;;;20.38;8.75;;;;;;;10.43;100.00;100573.34;5082429;28;20043;-81
2023/12/25 04:08:59;;;;;;;20.20;9.18;;;;;;;10.39;100.00;100568.06;5085129;28;20032;-73
2023/12/25 04:11:24;;;;;;;19.92;9.38;;;;;;;10.40;100.00;100578.63;5066185;28;20055;-82
2023/12/25 04:13:53;;;;;;;20.17;9.10;;;;;;;10.41;100.00;100569.84;5083189;28;20041;-83
2023/12/25 04:16:23;;;;;;;20.52;9.45;;;;;;;10.38;100.00;100561.91;5084571;28;20139;-82
2023/12/25 04:18:48;;;;;;;20.60;8.95;;;;;;;10.38;100.00;100564.56;5082430;28;20025;-69
2023/12/25 04:21:40;;;;;;;19.90;8.80;;;;;;;10.40;100.00;100561.91;5084932;28;20039;-79
2023/12/25 04:24:06;;;;;;;19.42;7.97;;;;;;;10.35;100.00;100559.22;5078919;28;20078;-84
2023/12/25 04:26:31;;;;;;;19.40;8.18;;;;;;;10.37;100.00;100554.84;5084377;28;20114;-82
2023/12/25 04:28:56;;;;;;;18.70;7.80;;;;;;;10.37;100.00;100546.94;5082810;28;20089;-84
2023/12/25 04:31:22;;;;;;;18.38;7.10;;;;;;;10.37;100.00;100557.50;5082757;28;20024;-84
2023/12/25 04:33:47;;;;;;;18.23;6.82;;;;;;;10.38;100.00;100553.97;5066066;28;20036;-84
2023/12/25 04:36:13;;;;;;;18.45;7.22;;;;;;;10.38;100.00;100550.44;5081540;28;20040;-84
2023/12/25 04:38:39;;;;;;;17.83;6.30;;;;;;;10.39;100.00;100541.63;5085006;28;20020;-85
2023/12/25 04:41:05;;;;;;;17.30;6.22;;;;;;;10.36;100.00;100550.44;5081463;28;20024;-80
2023/12/25 04:43:31;;;;;;;17.30;6.35;;;;;;;10.37;100.00;100549.56;5083952;28;20032;-80
2023/12/25 04:45:56;;;;;;;16.67;6.15;;;;;;;10.38;100.00;100548.69;5064355;28;20152;-80
2023/12/25 04:48:21;;;;;;;17.15;5.90;;;;;;;10.35;100.00;100546.03;5082777;28;20028;-80
2023/12/25 04:50:47;;;;;;;15.10;5.38;;;;;;;10.37;100.00;100533.72;5083545;28;20479;-85
2023/12/25 04:53:13;;;;;;;15.57;5.32;;;;;;;10.36;100.00;100545.16;5081175;28;20031;-85
2023/12/25 04:55:39;;;;;;;14.40;5.20;;;;;;;10.35;100.00;100537.22;5084523;28;20527;-85
2023/12/25 04:58:05;;;;;;;14.95;5.60;;;;;;;10.35;100.00;100526.66;5081066;28;20028;-85
2023/12/25 05:00:31;;;;;;;15.07;5.35;;;;;;;10.33;100.00;100529.28;5083593;28;20032;-84
2023/12/25 05:02:56;;;;;;;14.63;5.00;;;;;;;10.34;100.00;100540.75;5082281;28;20504;-85
2023/12/25 05:05:22;;;;;;;12.55;4.63;;;;;;;10.35;100.00;100527.53;5082677;28;20020;-79
2023/12/25 05:07:47;;;;;;;15.40;5.10;;;;;;;10.32;100.00;100524.84;5084966;28;20024;-80
2023/12/25 05:10:12;;;;;;;14.80;5.20;;;;;;;10.30;100.00;100522.22;5081363;28;20582;-85
2023/12/25 05:12:38;;;;;;;15.90;5.38;;;;;;;10.27;100.00;100526.63;5084112;28;20052;-85
2023/12/25 05:15:04;;;;;;;16.23;5.40;;;;;;;10.28;100.00;100526.63;5063270;28;20124;-85
2023/12/25 05:17:29;;;;;;;17.20;5.53;;;;;;;10.28;100.00;100524.00;5083187;28;20033;-86
2023/12/25 05:19:54;;;;;;;16.35;5.35;;;;;;;10.31;100.00;100536.31;5064384;28;20032;-84
2023/12/25 05:22:20;;;;;;;16.13;5.22;;;;;;;10.28;100.00;100531.00;5082129;28;20023;-83
2023/12/25 05:24:45;;;;;;;16.67;5.40;;;;;;;10.27;100.00;100539.84;5083626;28;20409;-85
2023/12/25 05:27:10;;;;;;;17.42;5.20;;;;;;;10.27;100.00;100524.88;5080980;28;20029;-85
2023/12/25 05:29:36;;;;;;;16.55;5.13;;;;;;;10.29;100.00;100527.50;5066567;28;20024;-72
2023/12/25 05:32:02;;;;;;;17.50;5.40;;;;;;;10.28;100.00;100524.00;5084695;28;20139;-71
2023/12/25 05:34:27;;;;;;;16.65;5.30;;;;;;;10.27;100.00;100522.22;5068758;28;20108;-72
2023/12/25 05:36:53;;;;;;;18.02;5.60;;;;;;;10.27;100.00;100521.34;5086559;28;20166;-71
2023/12/25 05:39:18;;;;;;;19.23;6.38;;;;;;;10.23;100.00;100530.16;5085688;28;20036;-72
2023/12/25 05:41:44;;;;;;;19.02;6.10;;;;;;;10.25;100.00;100544.22;5087492;28;20429;-72
2023/12/25 05:44:09;;;;;;;19.08;6.50;;;;;;;10.25;100.00;100531.03;5066597;28;20033;-68
2023/12/25 05:46:35;;;;;;;18.55;6.30;;;;;;;10.23;100.00;100536.31;5084517;28;20032;-69
2023/12/25 05:49:00;;;;;;;18.80;6.00;;;;;;;10.27;100.00;100540.72;5087257;28;20470;-70
2023/12/25 05:51:26;;;;;;;17.67;5.90;;;;;;;10.29;100.00;100522.22;5067747;28;20131;-70
2023/12/25 05:53:51;;;;;;;18.77;6.00;;;;;;;10.30;100.00;100522.22;5085788;28;20055;-72
2023/12/25 05:56:16;;;;;;;18.08;5.90;;;;;;;10.30;100.00;100529.28;5086817;28;20039;-72
2023/12/25 05:58:42;;;;;;;18.20;5.97;;;;;;;10.32;100.00;100521.34;5084279;28;20024;-70
2023/12/25 06:01:08;;;;;;;17.05;5.55;;;;;;;10.31;100.00;100525.75;5087700;28;20024;-71
2023/12/25 06:03:35;;;;;;;17.13;5.90;;;;;;;10.27;100.00;100524.88;5084707;28;20036;-69
2023/12/25 06:06:00;;;;;;;17.55;5.80;;;;;;;10.27;100.00;100530.16;5087008;28;20075;-78
2023/12/25 06:08:26;;;;;;;17.55;6.03;;;;;;;10.28;100.00;100515.16;5085579;28;20352;-82
2023/12/25 06:10:51;;;;;;;17.67;5.93;;;;;;;10.29;100.00;100536.34;5086142;28;20037;-83
2023/12/25 06:13:17;;;;;;;17.70;5.60;;;;;;;10.26;100.00;100523.09;5069021;28;20072;-80
2023/12/25 06:15:42;;;;;;;18.45;5.88;;;;;;;10.25;100.00;100531.03;5084453;28;20441;-83
2023/12/25 06:18:07;;;;;;;18.08;6.07;;;;;;;10.26;100.00;100538.94;5087887;28;20035;-80
2023/12/25 06:20:32;;;;;;;17.25;5.75;;;;;;;10.26;100.00;100541.59;5084667;28;20086;-83
2023/12/25 06:22:58;;;;;;;17.83;5.78;;;;;;;10.29;100.00;100532.78;5084323;28;20060;-82
2023/12/25 06:25:23;;;;;;;17.52;6.00;;;;;;;10.28;100.00;100531.00;5085768;28;20511;-70
2023/12/25 06:27:49;;;;;;;17.88;6.05;;;;;;;10.29;100.00;100528.41;5086589;28;20471;-83
2023/12/25 06:30:14;;;;;;;15.55;5.50;;;;;;;10.29;100.00;100516.94;5084815;28;20086;-81
2023/12/25 06:32:41;;;;;;;15.85;5.35;;;;;;;10.29;100.00;100528.41;5087412;28;20486;-83
2023/12/25 06:35:06;;;;;;;16.20;5.55;;;;;;;10.32;100.00;100537.19;5083947;28;20021;-84
2023/12/25 06:37:32;;;;;;;15.38;5.30;;;;;;;10.33;100.00;100536.31;5086813;28;20039;-83
2023/12/25 06:39:57;;;;;;;16.90;5.70;;;;;;;10.29;100.00;100525.75;5085198;28;20114;-78
2023/12/25 06:42:23;;;;;;;16.35;5.65;;;;;;;10.31;100.00;100531.03;5084107;28;20025;-77
2023/12/25 06:44:48;;;;;;;16.75;5.70;;;;;;;10.33;100.00;100529.28;5086521;28;20031;-82
2023/12/25 06:47:13;;;;;;;17.63;6.15;;;;;;;10.33;100.00;100534.56;5083699;28;20460;-83
2023/12/25 06:49:39;;;;;;;17.58;6.15;;;;;;;10.35;100.00;100527.53;5087070;28;20081;-84
2023/12/25 06:52:04;;;;;;;17.95;6.25;;;;;;;10.33;100.00;100531.03;5082637;28;20030;-72
2023/12/25 06:54:29;;;;;;;18.75;6.90;;;;;;;10.32;100.00;100524.84;5084212;28;20475;-73
2023/12/25 06:56:55;;;;;;;18.05;6.80;;;;;;;10.32;100.00;100542.47;5084744;28;20111;-69
2023/12/25 06:59:20;;;;;;;18.83;6.90;;;;;;;10.32;100.00;100540.72;5085610;28;20028;-71
2023/12/25 07:01:45;;;;;;;18.70;7.40;;;;;;;10.33;100.00;100529.28;5083586;28;20060;-72
2023/12/25 07:04:11;;;;;;;18.38;7.63;;;;;;;10.31;100.00;100536.31;5086614;28;20035;-68
2023/12/25 07:06:37;;;;;;;19.15;7.90;;;;;;;10.29;100.00;100532.78;5083033;28;20055;-68
2023/12/25 07:09:02;;;;;;;19.10;8.23;;;;;;;10.30;100.00;100529.28;5085573;28;20051;-69
2023/12/25 07:11:28;;;;;;;20.10;8.80;;;;;;;10.31;100.00;100541.63;5066421;28;20552;-71
2023/12/25 07:13:56;;;;;;;19.70;9.18;;;;;;;10.30;100.00;100532.78;5084238;28;20495;-72
2023/12/25 07:16:22;;;;;;;19.83;8.88;;;;;;;10.33;100.00;100542.47;5066788;28;20032;-71
2023/12/25 07:18:50;;;;;;;20.23;9.27;;;;;;;10.34;100.00;100553.94;5083876;28;20132;-72
2023/12/25 07:21:15;;;;;;;20.92;10.15;;;;;;;10.34;100.00;100552.22;5085648;28;20020;-72
2023/12/25 07:23:41;;;;;;;20.63;10.00;;;;;;;10.37;100.00;100546.03;5082629;28;20033;-73
2023/12/25 07:26:07;;;;;;;21.35;10.52;;;;;;;10.37;100.00;100557.50;5086088;28;20028;-72
2023/12/25 07:28:33;;;;;;;22.02;10.98;;;;;;;10.36;100.00;100565.41;5083220;28;20082;-71
2023/12/25 07:30:59;;;;;;;20.30;9.95;;;;;;;10.35;100.00;100564.53;5084698;28;20496;-72
2023/12/25 07:33:24;;;;;;;20.75;10.73;;;;;;;10.35;100.00;100563.66;5084443;28;20025;-72
2023/12/25 07:35:49;;;;;;;21.30;11.00;;;;;;;10.37;100.00;100562.78;5065604;28;20109;-69
2023/12/25 07:38:15;;;;;;;22.10;10.88;;;;;;;10.37;100.00;100562.78;5085506;28;20024;-71
2023/12/25 07:40:40;;;;;;;21.88;11.07;;;;;;;10.35;100.00;100574.22;5082460;28;20032;-73
2023/12/25 07:43:10;;;;;;;21.13;11.05;;;;;;;10.37;100.00;100569.81;5085420;28;20024;-70
2023/12/25 07:45:36;;;;;;;21.33;10.07;;;;;;;10.37;100.00;100577.72;5082454;28;20107;-68
2023/12/25 07:48:01;;;;;;;20.60;9.55;;;;;;;10.37;100.00;100581.28;5084901;28;20040;-74
2023/12/25 07:50:27;;;;;;;20.00;8.73;;;;;;;10.38;100.00;100584.78;5083598;28;20020;-75
2023/12/25 07:52:52;;;;;;;19.90;9.13;;;;;;;10.39;100.00;100586.56;5083149;28;20017;-81
2023/12/25 07:55:17;;;;;;;20.45;8.93;;;;;;;10.36;100.00;100600.66;5050740;28;20041;-78
2023/12/25 07:57:43;;;;;;;20.30;8.85;;;;;;;10.36;100.00;100605.94;5085599;28;20046;-82
2023/12/25 08:00:09;;;;;;;21.02;9.07;;;;;;;10.34;100.00;100598.88;5082331;28;20514;-76
2023/12/25 08:02:34;;;;;;;20.00;8.88;;;;;;;10.33;100.00;100600.59;5085005;28;20039;-83
2023/12/25 08:04:59;;;;;;;20.35;8.40;;;;;;;10.33;100.00;100607.66;5083227;28;20024;-82
2023/12/25 08:07:25;;;;;;;19.73;7.90;;;;;;;10.34;100.00;100615.63;5083651;28;20094;-83
2023/12/25 08:09:51;;;;;;;20.05;8.52;;;;;;;10.33;100.00;100619.09;5066149;28;20074;-85
2023/12/25 08:12:17;;;;;;;20.13;8.77;;;;;;;10.33;100.00;100621.75;5082261;28;20024;-82
2023/12/25 08:14:42;;;;;;;21.02;8.60;;;;;;;10.32;100.00;100622.63;5085397;28;20490;-83
2023/12/25 08:17:08;;;;;;;20.77;8.70;;;;;;;10.34;100.00;100630.56;5081553;28;20037;-86
2023/12/25 08:19:33;;;;;;;20.98;8.75;;;;;;;10.36;100.00;100634.13;5084258;28;20451;-75
2023/12/25 08:21:58;;;;;;;20.52;9.07;;;;;;;10.34;100.00;100634.13;5083045;28;20039;-86
2023/12/25 08:24:25;;;;;;;21.83;9.50;;;;;;;10.36;100.00;100645.56;5082909;28;20017;-70
2023/12/25 08:26:51;;;;;;;20.05;8.52;;;;;;;10.39;100.00;100648.22;5083854;28;20085;-70
2023/12/25 08:29:16;;;;;;;19.58;8.15;;;;;;;10.41;100.00;100645.56;5081953;28;20036;-70
2023/12/25 08:31:42;;;;;;;20.58;8.52;;;;;;;10.39;100.00;100644.69;5085055;28;20034;-71
2023/12/25 08:34:07;;;;;;;20.13;8.38;;;;;;;10.38;100.00;100649.09;5081690;28;20375;-73
2023/12/25 08:36:32;;;;;;;21.05;9.18;;;;;;;10.35;100.00;100645.56;5084036;28;20482;-72
2023/12/25 08:38:58;;;;;;;18.98;7.20;;;;;;;10.22;100.00;100645.50;5082506;28;20097;-71
2023/12/25 08:41:23;;;;;;;11.20;3.80;;;;;;;10.00;100.00;100652.47;5082516;28;20032;-72
2023/12/25 08:43:49;;;;;;;6.60;2.40;;;;;;;9.90;100.00;100656.84;5084112;28;20024;-72
2023/12/25 08:46:14;;;;;;;4.75;2.10;;;;;;;9.73;100.00;100648.84;5081228;28;20162;-72
2023/12/25 08:48:40;;;;;;;3.35;1.75;;;;;;;9.66;100.00;100649.69;5084870;28;20076;-71
2023/12/25 08:51:05;;;;;;;3.85;1.77;;;;;;;9.52;100.00;100654.00;5081415;28;20073;-72
2023/12/25 08:53:31;;;;;;;4.65;1.80;;;;;;;9.55;100.00;100661.94;5083310;28;20032;-72
2023/12/25 08:55:58;;;;;;;5.22;1.75;;;;;;;9.52;100.00;100656.66;5082758;28;20083;-70
2023/12/25 08:58:24;;;;;;;3.15;1.50;;;;;;;9.47;100.00;100663.66;5064311;28;20606;-71
2023/12/25 09:00:50;;;;;;;2.92;1.60;;;;;;;9.49;100.00;100661.91;5083532;28;20028;-69
2023/12/25 09:03:15;;;;;;;4.28;1.80;;;;;;;9.36;100.00;100656.56;5081291;28;20380;-70
2023/12/25 09:05:41;;;;;;;2.80;1.80;;;;;;;9.35;100.00;100651.25;5083842;28;20036;-72
2023/12/25 09:08:06;;;;;;;5.15;2.10;;;;;;;9.38;100.00;100652.19;5081041;28;20032;-70
2023/12/25 09:10:31;;;;;;;4.45;2.20;;;;;;;9.46;100.00;100638.16;5083533;28;20029;-69
2023/12/25 09:12:57;;;;;;;9.52;2.80;;;;;;;9.42;100.00;100653.97;5064141;28;20098;-72
2023/12/25 09:15:22;;;;;;;12.00;3.55;;;;;;;9.52;100.00;100656.66;5082023;28;20086;-72
2023/12/25 09:17:50;;;;;;;12.80;4.13;;;;;;;9.62;100.00;100658.47;5084123;28;20067;-85
2023/12/25 09:20:16;;;;;;;16.13;4.93;;;;;;;9.65;100.00;100663.75;5080965;28;20098;-85
2023/12/25 09:22:41;;;;;;;14.52;4.03;;;;;;;9.57;100.00;100670.75;5084243;28;20475;-81
2023/12/25 09:25:07;;;;;;;15.00;4.20;;;;;;;9.61;100.00;100683.09;5081280;28;20060;-79
2023/12/25 09:27:32;;;;;;;14.05;4.13;;;;;;;9.62;100.00;100686.63;5083086;28;20024;-85
2023/12/25 09:29:58;;;;;;;17.77;4.93;;;;;;;9.60;100.00;100690.13;5082475;28;20032;-69
2023/12/25 09:32:23;;;;;;;20.20;7.47;;;;;;;9.77;100.00;100710.44;5081844;28;20074;-87
2023/12/25 09:34:49;;;;;;;22.08;9.80;;;;;;;10.06;100.00;100715.91;5083738;28;20093;-88
2023/12/25 09:37:14;;;;;;;22.45;9.70;;;;;;;10.22;100.00;100718.59;5081147;28;20540;-88
2023/12/25 09:39:43;;;;;;;20.90;8.38;;;;;;;10.31;100.00;100726.56;5084404;28;20032;-88
2023/12/25 09:42:09;;;;;;;20.83;8.52;;;;;;;10.36;100.00;100724.84;5081130;28;20029;-89
2023/12/25 09:44:36;;;;;;;23.13;9.90;;;;;;;10.33;100.00;100735.34;5085689;28;20119;-83
2023/12/25 09:47:01;;;;;;;22.75;10.35;;;;;;;10.23;100.00;100726.50;5083404;28;20439;-76
2023/12/25 09:49:28;;;;;;;12.35;3.80;;;;;;;10.03;100.00;100730.81;5082497;28;20062;-80
2023/12/25 09:51:55;;;;;;;10.50;3.40;;;;;;;9.85;100.00;100715.78;5082195;28;20028;-76
2023/12/25 09:54:21;;;;;;;3.13;1.85;;;;;;;9.76;100.00;100706.06;5065854;28;20036;-84
2023/12/25 09:56:47;;;;;;;2.47;1.90;;;;;;;9.63;100.00;100709.50;5081305;28;20456;-87
2023/12/25 09:59:13;;;;;;;2.97;1.70;;;;;;;9.55;100.00;100712.06;5084533;28;20031;-87
2023/12/25 10:01:40;;;;;;;3.22;1.90;;;;;;;9.49;100.00;100698.84;5080910;28;20035;-88
2023/12/25 10:04:06;;;;;;;1.70;1.55;;;;;;;9.37;100.00;100708.44;5083557;28;20032;-88
2023/12/25 10:06:31;;;;;;;6.00;3.00;;;;;;;9.41;100.00;100710.22;5082463;28;20024;-84
2023/12/25 10:08:57;;;;;;;3.28;1.55;;;;;;;9.46;100.00;100717.31;5082850;28;20032;-87
2023/12/25 10:11:22;;;;;;;2.85;1.55;;;;;;;9.47;100.00;100713.81;5082341;28;20360;-75
2023/12/25 10:13:48;;;;;;;2.60;1.42;;;;;;;9.45;100.00;100711.16;5080706;28;20433;-84
2023/12/25 10:16:13;;;;;;;3.58;1.40;;;;;;;9.40;100.00;100724.28;5080723;28;20039;-81
2023/12/25 10:18:39;;;;;;;1.60;1.50;;;;;;;9.31;100.00;100712.81;5087503;28;20025;-82
2023/12/25 10:21:06;;;;;;;1.77;1.50;;;;;;;9.36;100.00;100717.25;5085119;28;20464;-80
2023/12/25 10:23:33;;;;;;;3.15;1.70;;;;;;;9.39;100.00;100721.63;5086194;28;20539;-88
2023/12/25 10:26:02;;;;;;;2.85;1.77;;;;;;;9.44;100.00;100730.50;5085340;28;20523;-72
2023/12/25 10:28:32;;;;;;;4.18;1.90;;;;;;;9.42;100.00;100730.47;5085019;28;20025;-82
2023/12/25 10:31:06;;;;;;;3.38;1.90;;;;;;;9.35;100.00;100715.47;5087098;28;20517;-73
2023/12/25 10:33:33;;;;;;;4.75;2.10;;;;;;;9.36;100.00;100722.53;5086246;28;20449;-80
2023/12/25 10:36:09;;;;;;;4.60;2.20;;;;;;;9.40;100.00;100731.34;5083838;28;20031;-69
2023/12/25 10:38:37;;;;;;;3.60;2.10;;;;;;;9.29;100.00;100717.16;5082102;28;20036;-87
2023/12/25 10:41:25;;;;;;;4.22;2.10;;;;;;;9.29;100.00;100723.34;5086734;28;20100;-87
2023/12/25 10:43:52;;;;;;;6.50;2.30;;;;;;;9.29;100.00;100718.06;5085636;28;20036;-86
2023/12/25 10:46:23;;;;;;;6.10;2.30;;;;;;;9.22;100.00;100714.50;5066733;28;20032;-86
2023/12/25 10:48:50;;;;;;;5.80;2.55;;;;;;;9.20;100.00;100728.53;5085421;28;20119;-69
2023/12/25 10:51:23;;;;;;;7.05;2.60;;;;;;;9.23;100.00;100725.91;5085486;28;20107;-82
2023/12/25 10:53:50;;;;;;;7.10;2.65;;;;;;;9.19;100.00;100730.28;5085399;28;20027;-79
2023/12/25 10:56:19;;;;;;;6.90;3.05;;;;;;;9.13;100.00;100731.97;5084835;28;20485;-73
2023/12/25 10:58:48;;;;;;;8.30;2.97;;;;;;;9.17;100.00;100729.38;5083868;28;20471;-69
2023/12/25 11:01:19;;;;;;;9.70;3.13;;;;;;;9.13;100.00;100724.97;5064499;28;20024;-70
2023/12/25 11:03:44;;;;;;;10.45;3.22;;;;;;;9.08;100.00;100716.13;5078803;28;20489;-70